createdAt,value
2023-04-16T00:02:38.248Z,100.00
2023-04-16T00:05:17.252Z,100.00
2023-04-16T00:07:58.394Z,100.00
2023-04-16T00:10:44.593Z,100.00
2023-04-16T00:13:28.121Z,100.00
2023-04-16T00:16:06.593Z,100.00
2023-04-16T00:18:52.007Z,100.00
2023-04-16T00:21:35.637Z,100.00
2023-04-16T00:24:21.833Z,100.00
2023-04-16T00:27:05.541Z,100.00
2023-04-16T00:29:49.862Z,100.00
2023-04-16T00:32:33.237Z,100.00
2023-04-16T00:35:13.929Z,100.00
2023-04-16T00:37:49.240Z,100.00
2023-04-16T00:40:32.695Z,100.00
2023-04-16T00:43:08.526Z,100.00
2023-04-16T00:45:49.763Z,100.00
2023-04-16T00:48:33.376Z,100.00
2023-04-16T00:51:11.639Z,100.00
2023-04-16T00:53:56.038Z,100.00
2023-04-16T00:56:42.742Z,100.00
2023-04-16T00:59:23.530Z,100.00
2023-04-16T01:02:07.925Z,100.00
2023-04-16T01:04:51.747Z,100.00
2023-04-16T01:07:30.166Z,100.00
2023-04-16T01:10:14.328Z,100.00
2023-04-16T01:13:00.575Z,100.00
2023-04-16T01:15:39.017Z,100.00
2023-04-16T01:18:25.920Z,100.00
2023-04-16T01:21:12.011Z,100.00
2023-04-16T01:23:54.863Z,100.00
2023-04-16T01:26:31.035Z,100.00
2023-04-16T01:29:10.119Z,100.00
2023-04-16T01:32:04.065Z,100.00
2023-04-16T01:34:50.664Z,100.00
2023-04-16T01:37:41.097Z,100.00
2023-04-16T01:40:15.535Z,100.00
2023-04-16T01:42:51.179Z,100.00
2023-04-16T01:45:26.073Z,100.00
2023-04-16T01:48:05.199Z,100.00
2023-04-16T01:50:46.090Z,100.00
2023-04-16T01:53:29.472Z,100.00
2023-04-16T01:55:59.094Z,100.00
2023-04-16T01:58:43.896Z,100.00
2023-04-16T02:01:19.089Z,100.00
2023-04-16T02:03:58.940Z,100.00
2023-04-16T02:06:40.330Z,100.00
2023-04-16T02:09:21.213Z,100.00
2023-04-16T02:12:02.613Z,100.00
2023-04-16T02:14:41.542Z,100.00
2023-04-16T02:17:22.280Z,100.00
2023-04-16T02:20:18.808Z,100.00
2023-04-16T02:23:00.968Z,100.00
2023-04-16T02:25:44.632Z,100.00
2023-04-16T02:28:23.030Z,100.00
2023-04-16T02:31:06.834Z,100.00
2023-04-16T02:33:43.833Z,100.00
2023-04-16T02:36:25.055Z,100.00
2023-04-16T02:39:06.882Z,100.00
2023-04-16T02:41:39.525Z,100.00
2023-04-16T02:44:14.834Z,100.00
2023-04-16T02:46:49.971Z,100.00
2023-04-16T02:49:31.838Z,100.00
2023-04-16T02:52:09.085Z,100.00
2023-04-16T02:54:51.787Z,100.00
2023-04-16T02:57:39.233Z,100.00
2023-04-16T03:00:10.024Z,100.00
2023-04-16T03:02:47.127Z,100.00
2023-04-16T03:05:31.543Z,100.00
2023-04-16T03:08:15.549Z,100.00
2023-04-16T03:10:48.254Z,100.00
2023-04-16T03:13:31.392Z,100.00
2023-04-16T03:16:06.804Z,100.00
2023-04-16T03:18:48.566Z,100.00
2023-04-16T03:21:31.808Z,100.00
2023-04-16T03:24:07.847Z,100.00
2023-04-16T03:26:49.161Z,100.00
2023-04-16T03:29:27.565Z,100.00
2023-04-16T03:32:13.152Z,100.00
2023-04-16T03:34:54.883Z,100.00
2023-04-16T03:37:36.044Z,100.00
2023-04-16T03:40:15.021Z,100.00
2023-04-16T03:42:47.441Z,100.00
2023-04-16T03:45:24.551Z,100.00
2023-04-16T03:48:06.581Z,100.00
2023-04-16T03:50:51.820Z,100.00
2023-04-16T03:53:28.821Z,100.00
2023-04-16T03:56:09.675Z,100.00
2023-04-16T03:58:50.926Z,100.00
2023-04-16T04:01:27.406Z,100.00
2023-04-16T04:04:09.023Z,100.00
2023-04-16T04:06:51.307Z,100.00
2023-04-16T04:09:26.771Z,100.00
2023-04-16T04:12:13.813Z,100.00
2023-04-16T04:15:02.908Z,100.00
2023-04-16T04:17:36.157Z,100.00
2023-04-16T04:20:22.582Z,100.00
2023-04-16T04:23:01.121Z,100.00
2023-04-16T04:25:39.501Z,100.00
2023-04-16T04:28:19.740Z,100.00
2023-04-16T04:31:01.930Z,100.00
2023-04-16T04:33:37.609Z,100.00
2023-04-16T04:36:18.325Z,100.00
2023-04-16T04:38:59.602Z,100.00
2023-04-16T04:41:45.253Z,100.00
2023-04-16T04:44:26.972Z,100.00
2023-04-16T04:47:08.357Z,100.00
2023-04-16T04:49:47.864Z,100.00
2023-04-16T04:52:23.602Z,100.00
2023-04-16T04:55:04.449Z,100.00
2023-04-16T04:57:45.192Z,100.00
2023-04-16T05:00:26.315Z,100.00
2023-04-16T05:03:10.592Z,100.00
2023-04-16T05:05:45.270Z,100.00
2023-04-16T05:08:27.227Z,100.00
2023-04-16T05:11:17.247Z,100.00
2023-04-16T05:13:50.817Z,100.00
2023-04-16T05:16:29.052Z,100.00
2023-04-16T05:19:15.145Z,100.00
2023-04-16T05:21:49.864Z,100.00
2023-04-16T05:24:31.479Z,100.00
2023-04-16T05:27:09.734Z,100.00
2023-04-16T05:29:47.741Z,100.00
2023-04-16T05:32:28.550Z,100.00
2023-04-16T05:35:03.350Z,100.00
2023-04-16T05:37:41.526Z,100.00
2023-04-16T05:40:22.232Z,100.00
2023-04-16T05:43:00.512Z,100.00
2023-04-16T05:45:41.252Z,100.00
2023-04-16T05:48:16.467Z,100.00
2023-04-16T05:50:54.338Z,100.00
2023-04-16T05:53:30.277Z,100.00
2023-04-16T05:56:12.130Z,100.00
2023-04-16T05:58:53.057Z,100.00
2023-04-16T06:01:41.160Z,100.00
2023-04-16T06:04:20.440Z,100.00
2023-04-16T06:07:08.214Z,100.00
2023-04-16T06:09:51.932Z,100.00
2023-04-16T06:12:32.638Z,100.00
2023-04-16T06:15:08.018Z,100.00
2023-04-16T06:17:52.816Z,100.00
2023-04-16T06:20:36.077Z,100.00
2023-04-16T06:23:08.813Z,100.00
2023-04-16T06:25:55.469Z,100.00
2023-04-16T06:28:36.349Z,100.00
2023-04-16T06:31:17.311Z,100.00
2023-04-16T06:33:58.049Z,100.00
2023-04-16T06:36:46.796Z,100.00
2023-04-16T06:39:24.690Z,100.00
2023-04-16T06:42:07.629Z,100.00
2023-04-16T06:44:48.423Z,100.00
2023-04-16T06:47:34.200Z,100.00
2023-04-16T06:50:15.245Z,100.00
2023-04-16T06:52:56.845Z,100.00
2023-04-16T06:55:39.773Z,100.00
2023-04-16T06:58:31.899Z,100.00
2023-04-16T07:01:16.403Z,100.00
2023-04-16T07:03:55.070Z,100.00
2023-04-16T07:06:36.958Z,100.00
2023-04-16T07:09:23.175Z,100.00
2023-04-16T07:12:07.125Z,100.00
2023-04-16T07:14:49.781Z,100.00
2023-04-16T07:17:38.534Z,100.00
2023-04-16T07:20:19.743Z,100.00
2023-04-16T07:22:54.404Z,100.00
2023-04-16T07:25:37.616Z,100.00
2023-04-16T07:28:24.614Z,100.00
2023-04-16T07:31:09.790Z,100.00
2023-04-16T07:33:42.592Z,100.00
2023-04-16T07:36:30.125Z,100.00
2023-04-16T07:39:13.804Z,100.00
2023-04-16T07:41:59.036Z,100.00
2023-04-16T07:44:44.440Z,100.00
2023-04-16T07:47:29.478Z,100.00
2023-04-16T07:50:07.298Z,100.00
2023-04-16T07:52:53.928Z,100.00
2023-04-16T07:55:37.287Z,100.00
2023-04-16T07:58:18.071Z,100.00
2023-04-16T08:00:58.866Z,100.00
2023-04-16T08:03:37.791Z,100.00
2023-04-16T08:06:23.659Z,100.00
2023-04-16T08:09:04.230Z,100.00
2023-04-16T08:11:45.026Z,100.00
2023-04-16T08:14:26.356Z,100.00
2023-04-16T08:17:10.201Z,100.00
2023-04-16T08:19:53.898Z,100.00
2023-04-16T08:22:31.684Z,100.00
2023-04-16T08:25:16.123Z,100.00
2023-04-16T08:28:02.413Z,100.00
2023-04-16T08:30:45.718Z,100.00
2023-04-16T08:33:33.031Z,100.00
2023-04-16T08:36:14.836Z,100.00
2023-04-16T08:38:52.801Z,100.00
2023-04-16T08:41:36.597Z,100.00
2023-04-16T08:44:35.455Z,100.00
2023-04-16T08:47:12.662Z,100.00
2023-04-16T08:50:02.090Z,99.15
2023-04-16T08:52:50.709Z,98.05
2023-04-16T08:55:41.189Z,96.99
2023-04-16T08:58:42.392Z,94.47
2023-04-16T09:01:30.040Z,94.35
2023-04-16T09:04:22.678Z,92.55
2023-04-16T09:07:08.940Z,88.00
2023-04-16T09:09:54.812Z,85.35
2023-04-16T09:12:35.614Z,88.99
2023-04-16T09:15:26.502Z,84.45
2023-04-16T09:18:12.919Z,84.61
2023-04-16T09:21:08.408Z,77.58
2023-04-16T09:24:01.283Z,74.33
2023-04-16T09:26:44.279Z,76.21
2023-04-16T09:29:48.697Z,74.55
2023-04-16T09:32:31.423Z,68.87
2023-04-16T09:35:18.165Z,68.52
2023-04-16T09:38:19.535Z,68.87
2023-04-16T09:41:19.377Z,67.36
2023-04-16T09:44:08.807Z,67.77
2023-04-16T09:47:05.827Z,65.98
2023-04-16T09:49:56.774Z,64.27
2023-04-16T09:52:40.000Z,66.25
2023-04-16T09:55:19.295Z,63.64
2023-04-16T09:58:10.713Z,64.44
2023-04-16T10:00:57.275Z,64.09
2023-04-16T10:03:48.035Z,64.17
2023-04-16T10:06:27.852Z,64.68
2023-04-16T10:09:15.488Z,64.08
2023-04-16T10:11:56.123Z,68.66
2023-04-16T10:14:46.109Z,67.69
2023-04-16T10:17:40.543Z,67.16
2023-04-16T10:20:22.921Z,67.34
2023-04-16T10:23:09.624Z,62.85
2023-04-16T10:25:56.976Z,63.86
2023-04-16T10:28:43.663Z,63.17
2023-04-16T10:31:27.791Z,61.85
2023-04-16T10:34:13.911Z,60.85
2023-04-16T10:37:13.298Z,64.89
2023-04-16T10:39:51.658Z,62.27
2023-04-16T10:42:37.381Z,62.66
2023-04-16T10:45:23.789Z,61.68
2023-04-16T10:48:11.972Z,64.50
2023-04-16T10:51:07.235Z,64.77
2023-04-16T10:53:51.093Z,65.09
2023-04-16T10:56:34.852Z,62.29
2023-04-16T10:59:16.791Z,64.65
2023-04-16T11:01:53.081Z,64.06
2023-04-16T11:04:40.291Z,62.53
2023-04-16T11:07:49.585Z,63.47
2023-04-16T11:10:30.865Z,62.38
2023-04-16T11:13:20.378Z,61.91
2023-04-16T11:16:04.793Z,61.75
2023-04-16T11:18:51.454Z,63.18
2023-04-16T11:21:33.752Z,64.97
2023-04-16T11:24:18.567Z,65.74
2023-04-16T11:27:05.358Z,67.04
2023-04-16T11:29:48.958Z,64.89
2023-04-16T11:32:37.345Z,62.79
2023-04-16T11:35:22.000Z,66.68
2023-04-16T11:38:17.174Z,64.66
2023-04-16T11:41:01.323Z,62.16
2023-04-16T11:43:44.943Z,60.08
2023-04-16T11:46:43.128Z,61.23
2023-04-16T11:49:20.964Z,61.79
2023-04-16T11:52:04.663Z,63.08
2023-04-16T11:54:53.801Z,61.17
2023-04-16T11:57:46.149Z,64.10
2023-04-16T12:00:34.663Z,60.48
2023-04-16T12:03:25.894Z,59.50
2023-04-16T12:06:16.138Z,61.67
2023-04-16T12:08:56.813Z,56.81
2023-04-16T12:11:58.732Z,60.59
2023-04-16T12:15:00.246Z,59.22
2023-04-16T12:17:42.983Z,57.57
2023-04-16T12:20:44.272Z,57.56
2023-04-16T12:23:36.274Z,54.55
2023-04-16T12:26:23.824Z,52.29
2023-04-16T12:29:01.522Z,53.65
2023-04-16T12:31:50.814Z,52.00
2023-04-16T12:34:55.739Z,55.21
2023-04-16T12:37:43.942Z,54.97
2023-04-16T12:40:52.008Z,54.70
2023-04-16T12:43:36.043Z,53.76
2023-04-16T12:46:35.811Z,51.36
2023-04-16T12:49:24.786Z,50.64
2023-04-16T12:52:03.975Z,52.28
2023-04-16T12:54:59.946Z,51.20
2023-04-16T12:57:44.429Z,49.29
2023-04-16T13:00:33.563Z,51.64
2023-04-16T13:03:32.912Z,51.31
2023-04-16T13:06:40.468Z,51.97
2023-04-16T13:09:29.550Z,52.54
2023-04-16T13:12:17.728Z,51.29
2023-04-16T13:15:13.181Z,48.48
2023-04-16T13:17:58.881Z,50.75
2023-04-16T13:20:42.175Z,50.06
2023-04-16T13:23:41.756Z,48.60
2023-04-16T13:26:42.871Z,49.44
2023-04-16T13:29:47.769Z,45.12
2023-04-16T13:32:37.584Z,46.15
2023-04-16T13:35:34.271Z,46.81
2023-04-16T13:38:17.940Z,46.08
2023-04-16T13:41:09.949Z,49.17
2023-04-16T13:43:54.780Z,44.91
2023-04-16T13:46:57.998Z,46.28
2023-04-16T13:49:38.905Z,48.09
2023-04-16T13:52:22.213Z,45.69
2023-04-16T13:55:14.216Z,46.05
2023-04-16T13:57:56.923Z,47.35
2023-04-16T14:00:43.835Z,46.16
2023-04-16T14:03:34.320Z,46.66
2023-04-16T14:06:18.222Z,44.59
2023-04-16T14:09:06.708Z,45.90
2023-04-16T14:11:45.786Z,47.23
2023-04-16T14:14:20.899Z,47.92
2023-04-16T14:16:58.975Z,48.45
2023-04-16T14:19:36.957Z,47.65
2023-04-16T14:22:25.427Z,48.10
2023-04-16T14:25:11.616Z,49.45
2023-04-16T14:28:07.152Z,45.51
2023-04-16T14:30:44.869Z,46.82
2023-04-16T14:33:25.606Z,48.97
2023-04-16T14:36:16.514Z,50.08
2023-04-16T14:38:54.741Z,49.05
2023-04-16T14:41:33.348Z,49.79
2023-04-16T14:44:12.697Z,50.15
2023-04-16T14:46:53.911Z,51.37
2023-04-16T14:49:37.796Z,49.39
2023-04-16T14:52:15.823Z,51.44
2023-04-16T14:55:05.329Z,51.23
2023-04-16T14:57:50.720Z,51.72
2023-04-16T15:00:34.169Z,52.31
2023-04-16T15:03:15.214Z,53.21
2023-04-16T15:05:57.795Z,53.45
2023-04-16T15:08:41.513Z,53.56
2023-04-16T15:11:30.345Z,52.42
2023-04-16T15:14:11.429Z,51.86
2023-04-16T15:16:55.801Z,51.77
2023-04-16T15:19:42.724Z,53.05
2023-04-16T15:22:24.885Z,52.92
2023-04-16T15:25:13.186Z,55.03
2023-04-16T15:28:02.596Z,55.04
2023-04-16T15:30:38.857Z,54.41
2023-04-16T15:33:17.816Z,54.72
2023-04-16T15:35:54.141Z,55.10
2023-04-16T15:38:42.959Z,54.10
2023-04-16T15:41:29.186Z,55.18
2023-04-16T15:44:17.833Z,52.68
2023-04-16T15:46:58.860Z,53.31
2023-04-16T15:49:49.906Z,53.71
2023-04-16T15:52:27.575Z,54.48
2023-04-16T15:55:13.944Z,54.72
2023-04-16T15:58:00.090Z,53.88
2023-04-16T16:00:43.298Z,53.09
2023-04-16T16:03:29.769Z,53.45
2023-04-16T16:06:11.621Z,54.03
2023-04-16T16:08:53.486Z,54.81
2023-04-16T16:11:37.495Z,55.35
2023-04-16T16:14:31.103Z,56.36
2023-04-16T16:17:16.687Z,57.28
2023-04-16T16:20:04.144Z,57.70
2023-04-16T16:22:57.246Z,57.47
2023-04-16T16:25:41.216Z,57.95
2023-04-16T16:28:24.503Z,58.88
2023-04-16T16:31:13.700Z,58.55
2023-04-16T16:33:59.254Z,59.66
2023-04-16T16:36:40.071Z,59.58
2023-04-16T16:39:30.895Z,60.42
2023-04-16T16:42:18.840Z,60.40
2023-04-16T16:45:06.832Z,60.14
2023-04-16T16:47:57.668Z,61.55
2023-04-16T16:50:42.537Z,60.06
2023-04-16T16:53:31.070Z,60.42
2023-04-16T16:56:14.888Z,61.85
2023-04-16T16:58:58.089Z,61.57
2023-04-16T17:01:46.882Z,61.67
2023-04-16T17:04:28.449Z,61.88
2023-04-16T17:07:14.819Z,62.53
2023-04-16T17:10:00.383Z,64.25
2023-04-16T17:12:43.807Z,63.61
2023-04-16T17:15:24.502Z,64.08
2023-04-16T17:18:11.298Z,64.52
2023-04-16T17:20:58.141Z,64.74
2023-04-16T17:23:41.018Z,65.03
2023-04-16T17:26:22.157Z,65.11
2023-04-16T17:29:06.967Z,65.63
2023-04-16T17:31:54.420Z,64.96
2023-04-16T17:34:40.294Z,65.80
2023-04-16T17:37:23.556Z,65.96
2023-04-16T17:40:08.964Z,67.17
2023-04-16T17:42:50.838Z,68.39
2023-04-16T17:45:48.321Z,69.74
2023-04-16T17:48:25.453Z,70.09
2023-04-16T17:51:03.870Z,69.87
2023-04-16T17:53:44.907Z,70.47
2023-04-16T17:56:23.432Z,71.75
2023-04-16T17:59:08.209Z,71.65
2023-04-16T18:01:59.662Z,71.62
2023-04-16T18:04:48.826Z,73.86
2023-04-16T18:07:47.230Z,74.62
2023-04-16T18:10:51.258Z,73.48
2023-04-16T18:13:43.412Z,74.72
2023-04-16T18:16:37.622Z,74.44
2023-04-16T18:19:45.450Z,73.51
2023-04-16T18:22:28.609Z,74.76
2023-04-16T18:25:19.025Z,77.18
2023-04-16T18:28:03.985Z,76.97
2023-04-16T18:30:58.710Z,78.17
2023-04-16T18:33:55.561Z,78.69
2023-04-16T18:36:45.196Z,79.85
2023-04-16T18:39:28.704Z,79.83
2023-04-16T18:42:07.187Z,79.68
2023-04-16T18:44:59.323Z,79.99
2023-04-16T18:47:41.889Z,79.24
2023-04-16T18:50:23.245Z,78.24
2023-04-16T18:53:04.185Z,78.71
2023-04-16T18:55:50.219Z,77.63
2023-04-16T18:58:39.249Z,80.24
2023-04-16T19:01:25.166Z,79.92
2023-04-16T19:04:09.665Z,80.78
2023-04-16T19:06:54.380Z,80.44
2023-04-16T19:09:43.903Z,79.44
2023-04-16T19:12:29.046Z,80.48
2023-04-16T19:15:15.854Z,81.02
2023-04-16T19:17:55.863Z,82.01
2023-04-16T19:20:41.621Z,82.26
2023-04-16T19:23:17.028Z,82.89
2023-04-16T19:26:04.969Z,83.27
2023-04-16T19:28:45.776Z,84.06
2023-04-16T19:31:28.920Z,85.17
2023-04-16T19:34:12.815Z,86.18
2023-04-16T19:36:56.646Z,86.53
2023-04-16T19:39:34.443Z,86.74
2023-04-16T19:42:15.878Z,87.61
2023-04-16T19:45:05.073Z,87.67
2023-04-16T19:47:55.312Z,88.71
2023-04-16T19:50:46.604Z,88.00
2023-04-16T19:53:34.921Z,87.85
2023-04-16T19:56:18.790Z,87.46
2023-04-16T19:59:02.155Z,87.19
2023-04-16T20:01:46.946Z,87.42
2023-04-16T20:04:36.844Z,87.66
2023-04-16T20:07:22.115Z,87.85
2023-04-16T20:10:08.715Z,87.90
2023-04-16T20:12:52.225Z,87.47
2023-04-16T20:15:43.597Z,87.48
2023-04-16T20:18:25.988Z,88.48
2023-04-16T20:21:07.146Z,87.76
2023-04-16T20:23:52.457Z,87.78
2023-04-16T20:26:39.042Z,89.28
2023-04-16T20:29:30.136Z,89.47
2023-04-16T20:32:08.531Z,88.53
2023-04-16T20:34:49.803Z,88.13
2023-04-16T20:37:22.771Z,87.48
2023-04-16T20:40:07.823Z,87.03
2023-04-16T20:42:57.877Z,87.22
2023-04-16T20:45:41.035Z,87.55
2023-04-16T20:48:22.233Z,87.81
2023-04-16T20:51:03.175Z,88.38
2023-04-16T20:53:50.197Z,89.01
2023-04-16T20:56:40.147Z,88.82
2023-04-16T20:59:36.969Z,88.85
2023-04-16T21:02:22.716Z,89.00
2023-04-16T21:05:06.354Z,89.14
2023-04-16T21:07:43.880Z,88.49
2023-04-16T21:10:21.658Z,88.13
2023-04-16T21:13:02.445Z,88.16
2023-04-16T21:16:08.365Z,88.33
2023-04-16T21:18:55.105Z,88.99
2023-04-16T21:21:47.032Z,89.19
2023-04-16T21:24:27.800Z,88.60
2023-04-16T21:27:11.611Z,88.55
2023-04-16T21:29:55.326Z,89.14
2023-04-16T21:32:35.644Z,89.22
2023-04-16T21:35:13.867Z,89.67
2023-04-16T21:38:07.279Z,90.20
2023-04-16T21:40:56.647Z,91.36
2023-04-16T21:43:37.899Z,90.72
2023-04-16T21:46:21.573Z,90.65
2023-04-16T21:49:01.592Z,90.50
2023-04-16T21:51:47.929Z,90.65
2023-04-16T21:54:38.276Z,91.14
2023-04-16T21:57:24.638Z,91.58
2023-04-16T22:00:14.349Z,91.62
2023-04-16T22:03:09.311Z,92.83
2023-04-16T22:05:44.850Z,93.71
2023-04-16T22:08:27.777Z,93.24
2023-04-16T22:11:13.358Z,92.71
2023-04-16T22:13:51.093Z,92.87
2023-04-16T22:16:37.437Z,91.80
2023-04-16T22:19:22.467Z,92.06
2023-04-16T22:22:11.742Z,92.76
2023-04-16T22:24:55.772Z,92.57
2023-04-16T22:27:31.382Z,92.86
2023-04-16T22:30:15.605Z,92.65
2023-04-16T22:32:53.792Z,92.29
2023-04-16T22:35:39.061Z,92.13
2023-04-16T22:38:21.501Z,92.15
2023-04-16T22:41:00.910Z,92.53
2023-04-16T22:43:44.029Z,92.25
2023-04-16T22:46:27.933Z,90.96
2023-04-16T22:49:09.360Z,91.58
2023-04-16T22:51:58.785Z,91.84
2023-04-16T22:54:41.738Z,91.49
2023-04-16T22:57:17.394Z,90.16
2023-04-16T23:00:12.629Z,89.57
2023-04-16T23:03:00.580Z,89.92
2023-04-16T23:05:44.069Z,90.07
2023-04-16T23:08:21.788Z,90.02
2023-04-16T23:11:02.263Z,88.94
2023-04-16T23:13:54.503Z,88.79
2023-04-16T23:16:43.091Z,88.64
2023-04-16T23:19:25.301Z,88.89
2023-04-16T23:22:06.810Z,89.61
2023-04-16T23:24:55.085Z,87.91
2023-04-16T23:27:32.550Z,89.44
2023-04-16T23:30:11.951Z,88.09
2023-04-16T23:32:57.601Z,88.48
2023-04-16T23:35:39.808Z,89.84
2023-04-16T23:38:20.415Z,89.39
2023-04-16T23:41:07.838Z,90.52
2023-04-16T23:43:52.048Z,89.53
2023-04-16T23:46:32.789Z,87.89
2023-04-16T23:49:18.379Z,87.72
2023-04-16T23:51:59.195Z,87.53
2023-04-16T23:54:33.752Z,87.03
2023-04-16T23:57:18.065Z,86.81
